Time;durP1;ratioP1;P1;durP2;ratioP2;P2;SDS_P1;SDS_P2;PMS_P1;PMS_P2;Temp;Humidity;BMP_temperature;BMP_pressure;BME280_temperature;BME280_humidity;BME280_pressure;Samples;Min_cycle;Max_cycle;Signal;HPM_P1;HPM_P2
2023/07/10 00:01:12;;;;;;;6.10;5.60;;;25.70;95.00;;;;;;5035811;28;20459;-80
2023/07/10 00:03:39;;;;;;;7.10;6.50;;;25.70;95.40;;;;;;5036048;28;20482;-80
2023/07/10 00:06:09;;;;;;;6.80;5.93;;;25.60;95.70;;;;;;5036398;28;20443;-79
2023/07/10 00:08:36;;;;;;;6.73;5.83;;;25.90;96.20;;;;;;5035457;28;20465;-80
2023/07/10 00:11:03;;;;;;;7.37;6.33;;;25.50;96.70;;;;;;5036680;28;20438;-78
2023/07/10 00:13:32;;;;;;;7.23;5.97;;;25.40;97.10;;;;;;5041354;28;20530;-78
2023/07/10 00:15:58;;;;;;;6.93;6.23;;;25.40;97.30;;;;;;5053273;28;20443;-79
2023/07/10 00:18:25;;;;;;;6.87;6.20;;;25.60;97.60;;;;;;5054251;28;20435;-78
2023/07/10 00:20:52;;;;;;;6.47;5.87;;;25.40;97.90;;;;;;5042868;28;20967;-78
2023/07/10 00:23:19;;;;;;;6.03;5.53;;;25.40;98.20;;;;;;5035636;28;20991;-79
2023/07/10 00:25:46;;;;;;;7.43;5.70;;;25.60;98.40;;;;;;5036536;28;20513;-80
2023/07/10 00:28:15;;;;;;;5.10;4.70;;;25.20;98.80;;;;;;5036248;28;20454;-78
2023/07/10 00:30:45;;;;;;;10.83;5.97;;;25.60;96.90;;;;;;5035307;28;20443;-80
2023/07/10 00:33:13;;;;;;;6.87;6.27;;;25.40;96.80;;;;;;5040882;28;20539;-79
2023/07/10 00:35:40;;;;;;;6.13;5.50;;;25.40;96.80;;;;;;5047241;28;20434;-79
2023/07/10 00:38:17;;;;;;;5.93;5.40;;;25.40;96.90;;;;;;5047200;28;20468;-78
2023/07/10 00:40:45;;;;;;;6.23;5.63;;;25.40;97.40;;;;;;5048280;28;20472;-78
2023/07/10 00:43:23;;;;;;;6.80;6.10;;;25.30;98.00;;;;;;5038245;28;20462;-80
2023/07/10 00:45:52;;;;;;;8.10;5.90;;;25.50;98.40;;;;;;5035242;28;20458;-80
2023/07/10 00:48:29;;;;;;;7.53;5.97;;;25.20;98.50;;;;;;5035239;28;20449;-80
2023/07/10 00:51:00;;;;;;;7.07;5.90;;;25.20;98.50;;;;;;5034992;28;20470;-79
2023/07/10 00:53:29;;;;;;;5.90;5.40;;;25.10;98.70;;;;;;5034893;28;21204;-79
2023/07/10 00:56:00;;;;;;;6.33;5.40;;;25.10;99.20;;;;;;5034741;28;20435;-78
2023/07/10 00:58:31;;;;;;;7.03;5.97;;;25.00;99.00;;;;;;5034761;28;21015;-79
2023/07/10 01:01:04;;;;;;;7.00;6.20;;;25.30;99.90;;;;;;5035006;28;20458;-80
2023/07/10 01:03:31;;;;;;;7.17;6.47;;;25.10;99.90;;;;;;5034369;28;20494;-79
2023/07/10 01:06:00;;;;;;;6.20;5.70;;;25.10;99.90;;;;;;5035169;28;20438;-80
2023/07/10 01:08:27;;;;;;;5.90;5.10;;;25.00;99.90;;;;;;5034014;28;20455;-80
2023/07/10 01:10:54;;;;;;;6.80;5.70;;;25.00;99.90;;;;;;5034533;28;20446;-79
2023/07/10 01:13:21;;;;;;;7.57;6.50;;;25.00;99.90;;;;;;5034275;28;20463;-79
2023/07/10 01:15:48;;;;;;;6.23;5.10;;;24.90;99.90;;;;;;5034615;28;20451;-79
2023/07/10 01:18:17;;;;;;;6.20;5.60;;;24.90;99.90;;;;;;5037163;28;20474;-79
2023/07/10 01:20:47;;;;;;;5.83;5.33;;;24.90;99.90;;;;;;5038003;28;20447;-79
2023/07/10 01:23:16;;;;;;;7.13;5.70;;;24.90;99.90;;;;;;5036896;28;20487;-79
2023/07/10 01:25:48;;;;;;;6.73;5.33;;;25.00;99.90;;;;;;5036453;28;20545;-80
2023/07/10 01:28:18;;;;;;;6.60;5.97;;;24.90;99.90;;;;;;5038184;28;20531;-79
2023/07/10 01:30:47;;;;;;;6.30;5.30;;;24.80;99.90;;;;;;5043814;28;20462;-78
2023/07/10 01:33:17;;;;;;;6.33;5.73;;;24.80;99.90;;;;;;5035728;28;20497;-79
2023/07/10 01:35:46;;;;;;;6.17;5.30;;;24.70;99.90;;;;;;5033317;28;20477;-81
2023/07/10 01:38:15;;;;;;;7.57;5.27;;;24.70;99.90;;;;;;5033893;28;20438;-79
2023/07/10 01:40:51;;;;;;;6.03;5.43;;;24.70;99.90;;;;;;5034522;28;20454;-78
2023/07/10 01:43:18;;;;;;;8.40;6.23;;;24.60;99.90;;;;;;5033587;28;20473;-78
2023/07/10 01:45:47;;;;;;;6.67;6.00;;;24.60;99.90;;;;;;5033147;28;20600;-78
2023/07/10 01:48:16;;;;;;;6.83;6.23;;;24.60;99.90;;;;;;5036170;28;20451;-79
2023/07/10 01:50:43;;;;;;;6.10;5.17;;;24.60;99.90;;;;;;5033846;28;20431;-80
2023/07/10 01:53:11;;;;;;;8.13;5.93;;;24.60;99.90;;;;;;5033234;28;20471;-79
2023/07/10 01:55:43;;;;;;;6.67;6.00;;;24.90;99.90;;;;;;5033239;28;20443;-79
2023/07/10 01:58:11;;;;;;;6.90;5.57;;;24.60;99.90;;;;;;5045778;28;20454;-77
2023/07/10 02:00:38;;;;;;;7.53;6.70;;;24.60;99.90;;;;;;5055890;28;20467;-77
2023/07/10 02:03:06;;;;;;;6.00;5.40;;;24.50;99.90;;;;;;5055948;28;20470;-77
2023/07/10 02:05:34;;;;;;;6.27;5.70;;;24.50;99.90;;;;;;5055720;28;20462;-77
2023/07/10 02:08:00;;;;;;;7.80;6.03;;;24.50;99.90;;;;;;5055760;28;20502;-76
2023/07/10 02:10:27;;;;;;;6.50;5.90;;;24.50;99.90;;;;;;5056177;28;20441;-77
2023/07/10 02:12:55;;;;;;;7.63;5.97;;;24.40;99.90;;;;;;5040523;28;20435;-78
2023/07/10 02:15:22;;;;;;;6.50;5.93;;;24.80;99.90;;;;;;5034272;28;20458;-80
2023/07/10 02:17:48;;;;;;;6.60;5.83;;;24.70;99.90;;;;;;5032356;28;20454;-79
2023/07/10 02:20:15;;;;;;;6.70;6.10;;;24.50;99.90;;;;;;5031536;28;20855;-79
2023/07/10 02:22:42;;;;;;;6.97;6.17;;;24.50;99.90;;;;;;5051839;28;20812;-79
2023/07/10 02:25:09;;;;;;;6.13;5.60;;;24.50;99.90;;;;;;5050906;28;21018;-78
2023/07/10 02:27:36;;;;;;;6.50;6.00;;;24.40;99.90;;;;;;5052030;28;20457;-79
2023/07/10 02:30:05;;;;;;;6.20;5.70;;;24.40;99.90;;;;;;5051982;28;20446;-78
2023/07/10 02:32:32;;;;;;;8.00;5.90;;;24.40;99.90;;;;;;5052250;28;20461;-78
2023/07/10 02:34:58;;;;;;;6.80;6.10;;;24.40;99.90;;;;;;5051389;28;21196;-79
2023/07/10 02:37:25;;;;;;;6.80;6.20;;;24.30;99.90;;;;;;5051689;28;20445;-79
2023/07/10 02:39:52;;;;;;;6.63;5.97;;;24.30;99.90;;;;;;5052269;28;20943;-79
2023/07/10 02:42:18;;;;;;;7.03;6.23;;;24.30;99.90;;;;;;5052895;28;20468;-78
2023/07/10 02:44:45;;;;;;;6.37;5.87;;;24.50;99.90;;;;;;5052975;28;20486;-78
2023/07/10 02:47:13;;;;;;;7.40;6.70;;;24.30;99.90;;;;;;5056353;28;20785;-79
2023/07/10 02:49:40;;;;;;;8.80;6.73;;;24.60;99.90;;;;;;5056363;28;20819;-80
2023/07/10 02:52:07;;;;;;;7.80;6.70;;;24.40;99.90;;;;;;5056506;28;20453;-78
2023/07/10 02:54:34;;;;;;;6.90;6.30;;;24.40;99.90;;;;;;5056133;28;20470;-81
2023/07/10 02:57:01;;;;;;;6.90;6.30;;;24.50;99.90;;;;;;5056586;28;20446;-80
2023/07/10 02:59:28;;;;;;;7.20;6.47;;;24.40;99.90;;;;;;5056633;28;20442;-80
2023/07/10 03:01:55;;;;;;;7.03;6.37;;;24.40;99.90;;;;;;5056678;28;20454;-79
2023/07/10 03:04:23;;;;;;;6.87;6.20;;;24.40;99.90;;;;;;5056349;28;21045;-78
2023/07/10 03:06:50;;;;;;;7.53;6.80;;;24.40;99.90;;;;;;5056819;28;21247;-78
2023/07/10 03:09:17;;;;;;;6.53;5.93;;;24.40;99.90;;;;;;5042534;28;20453;-79
2023/07/10 03:11:44;;;;;;;7.83;6.50;;;24.40;99.90;;;;;;5048900;28;20450;-76
2023/07/10 03:14:11;;;;;;;6.67;6.07;;;24.40;99.90;;;;;;5059323;28;20477;-76
2023/07/10 03:16:37;;;;;;;7.30;6.47;;;24.40;99.90;;;;;;5058970;28;20458;-76
2023/07/10 03:19:04;;;;;;;7.37;6.53;;;24.50;99.90;;;;;;5058616;28;20632;-75
2023/07/10 03:21:32;;;;;;;8.07;6.37;;;24.80;99.90;;;;;;5058419;28;20470;-75
2023/07/10 03:23:59;;;;;;;7.57;6.60;;;24.50;99.90;;;;;;5059028;28;20461;-76
2023/07/10 03:26:25;;;;;;;8.17;6.27;;;24.60;99.90;;;;;;5058485;28;20470;-76
2023/07/10 03:29:04;;;;;;;8.90;6.80;;;24.60;99.90;;;;;;5058671;28;20439;-76
2023/07/10 03:31:31;;;;;;;8.10;6.83;;;24.60;99.90;;;;;;5058365;28;20543;-78
2023/07/10 03:33:58;;;;;;;8.40;6.97;;;24.60;99.90;;;;;;5057936;28;20501;-77
2023/07/10 03:36:25;;;;;;;7.00;5.80;;;24.50;99.90;;;;;;5050554;28;20554;-77
2023/07/10 03:38:53;;;;;;;6.77;6.07;;;24.50;99.90;;;;;;5042474;28;20435;-79
2023/07/10 03:41:20;;;;;;;6.80;6.10;;;24.50;99.90;;;;;;5038995;28;20442;-79
2023/07/10 03:43:48;;;;;;;6.93;6.23;;;24.50;99.90;;;;;;5036155;28;20451;-79
2023/07/10 03:46:15;;;;;;;6.80;6.10;;;24.80;99.90;;;;;;5037203;28;20482;-79
2023/07/10 03:48:42;;;;;;;7.67;6.43;;;24.60;99.90;;;;;;5036324;28;20453;-78
2023/07/10 03:51:09;;;;;;;9.33;6.97;;;24.60;99.90;;;;;;5035743;28;20451;-78
2023/07/10 03:53:36;;;;;;;6.63;6.03;;;24.60;99.90;;;;;;5035396;28;20458;-79
2023/07/10 03:56:04;;;;;;;6.83;6.13;;;24.50;99.90;;;;;;5035449;28;20445;-78
2023/07/10 03:58:32;;;;;;;10.20;7.10;;;24.60;99.90;;;;;;5035815;28;20449;-80
2023/07/10 04:01:00;;;;;;;7.70;6.23;;;24.60;99.90;;;;;;5035502;28;20466;-79
2023/07/10 04:03:29;;;;;;;9.37;6.20;;;24.60;99.90;;;;;;5035824;28;20995;-80
2023/07/10 04:05:58;;;;;;;7.57;6.77;;;24.60;99.90;;;;;;5036297;28;20474;-79
2023/07/10 04:08:27;;;;;;;8.10;7.40;;;24.60;99.90;;;;;;5035719;28;20486;-80
2023/07/10 04:10:56;;;;;;;7.33;6.60;;;24.60;99.90;;;;;;5035657;28;21037;-79
2023/07/10 04:13:25;;;;;;;6.90;6.20;;;24.70;99.90;;;;;;5035983;28;20467;-79
2023/07/10 04:15:58;;;;;;;8.07;7.20;;;24.70;99.90;;;;;;5035831;28;20485;-79
2023/07/10 04:18:24;;;;;;;8.47;6.83;;;24.70;99.90;;;;;;5035959;28;20450;-78
2023/07/10 04:20:51;;;;;;;7.37;6.67;;;24.80;99.90;;;;;;5039692;28;20446;-78
2023/07/10 04:23:18;;;;;;;8.47;7.07;;;24.80;99.90;;;;;;5055040;28;20470;-79
2023/07/10 04:25:45;;;;;;;7.50;6.80;;;24.80;99.90;;;;;;5055953;28;20580;-79
2023/07/10 04:28:12;;;;;;;7.47;6.33;;;24.80;99.90;;;;;;5054996;28;20439;-80
2023/07/10 04:30:40;;;;;;;9.60;6.33;;;24.80;99.90;;;;;;5055360;28;21261;-79
2023/07/10 04:33:08;;;;;;;6.90;5.83;;;24.80;99.90;;;;;;5054759;28;20512;-77
2023/07/10 04:35:34;;;;;;;7.17;6.50;;;25.00;99.90;;;;;;5055222;28;20442;-78
2023/07/10 04:38:01;;;;;;;15.00;7.20;;;24.70;99.90;;;;;;5055398;28;20433;-79
2023/07/10 04:40:28;;;;;;;8.10;7.30;;;24.60;99.90;;;;;;5055381;28;20820;-79
2023/07/10 04:42:55;;;;;;;7.60;6.90;;;24.80;99.90;;;;;;5054889;28;20856;-78
2023/07/10 04:45:22;;;;;;;7.50;6.67;;;24.80;99.90;;;;;;5056212;28;20513;-78
2023/07/10 04:47:50;;;;;;;8.90;7.13;;;24.80;99.90;;;;;;5065286;28;20582;-79
2023/07/10 04:50:16;;;;;;;7.17;6.57;;;24.80;99.90;;;;;;5066423;28;20446;-79
2023/07/10 04:52:43;;;;;;;8.20;6.67;;;24.80;99.90;;;;;;5067385;28;20453;-78
2023/07/10 04:55:10;;;;;;;7.80;5.90;;;24.80;99.90;;;;;;5060951;28;20430;-79
2023/07/10 04:57:36;;;;;;;8.23;7.43;;;24.70;99.90;;;;;;5055780;28;20442;-81
2023/07/10 05:00:04;;;;;;;9.63;7.23;;;24.70;99.90;;;;;;5057487;28;20446;-80
2023/07/10 05:02:34;;;;;;;7.63;6.83;;;24.60;99.90;;;;;;5056206;28;20974;-80
2023/07/10 05:05:02;;;;;;;9.37;7.67;;;24.60;99.90;;;;;;5058875;28;20458;-79
2023/07/10 05:07:29;;;;;;;8.50;7.17;;;24.60;99.90;;;;;;5052989;28;21059;-79
2023/07/10 05:09:56;;;;;;;7.23;6.53;;;24.60;99.90;;;;;;5053724;28;20449;-80
2023/07/10 05:13:10;;;;;;;8.00;6.47;;;24.70;99.90;;;;;;5037840;28;20921;-79
2023/07/10 05:16:00;;;;;;;9.60;7.33;;;24.80;99.90;;;;;;4961676;28;20512;-79
2023/07/10 05:18:49;;;;;;;7.97;6.67;;;24.90;99.90;;;;;;4973706;28;20883;-80
2023/07/10 05:21:37;;;;;;;6.90;6.20;;;25.00;99.90;;;;;;5032974;28;20439;-81
2023/07/10 05:24:04;;;;;;;8.50;6.90;;;25.30;99.90;;;;;;5035083;28;20474;-80
2023/07/10 05:26:31;;;;;;;9.87;7.40;;;25.10;99.90;;;;;;5038843;28;20473;-80
2023/07/10 05:28:58;;;;;;;7.90;7.20;;;25.20;99.90;;;;;;5045954;28;20442;-81
2023/07/10 05:31:24;;;;;;;7.67;6.80;;;25.30;99.90;;;;;;5036837;28;20514;-80
2023/07/10 05:33:52;;;;;;;10.53;7.70;;;25.40;99.90;;;;;;5043660;28;20478;-80
2023/07/10 05:36:20;;;;;;;8.60;6.73;;;25.50;99.90;;;;;;5035030;28;21054;-80
2023/07/10 05:38:48;;;;;;;10.57;6.87;;;25.80;99.90;;;;;;5033722;28;20446;-80
2023/07/10 05:41:16;;;;;;;7.90;7.20;;;25.70;99.90;;;;;;5033899;28;20496;-80
2023/07/10 05:43:43;;;;;;;8.90;7.80;;;25.80;99.90;;;;;;5034079;28;20480;-79
2023/07/10 05:46:10;;;;;;;16.10;7.63;;;25.70;99.90;;;;;;5039875;28;20505;-83
2023/07/10 05:48:37;;;;;;;13.33;7.87;;;25.80;99.90;;;;;;5050168;28;20439;-80
2023/07/10 05:51:04;;;;;;;9.10;7.17;;;25.90;99.90;;;;;;5051103;28;20450;-80
2023/07/10 05:53:33;;;;;;;14.73;8.57;;;25.90;99.90;;;;;;5051164;28;20463;-82
2023/07/10 05:56:02;;;;;;;11.13;8.27;;;26.20;99.90;;;;;;5047131;28;20446;-80
2023/07/10 05:58:31;;;;;;;9.53;8.47;;;26.10;99.90;;;;;;5036448;28;20457;-80
2023/07/10 06:00:59;;;;;;;10.40;7.40;;;26.10;99.90;;;;;;5037134;28;20454;-80
2023/07/10 06:03:27;;;;;;;7.40;6.70;;;26.10;99.90;;;;;;5041927;28;21011;-80
2023/07/10 06:05:55;;;;;;;7.73;6.97;;;26.20;99.90;;;;;;5044213;28;20533;-82
2023/07/10 06:08:23;;;;;;;8.80;6.70;;;26.30;99.90;;;;;;5039264;28;20434;-80
2023/07/10 06:10:50;;;;;;;7.40;6.80;;;26.40;99.90;;;;;;5037849;28;20427;-80
2023/07/10 06:13:19;;;;;;;9.90;6.10;;;26.60;99.90;;;;;;5037664;28;20898;-81
2023/07/10 06:15:48;;;;;;;8.20;7.40;;;26.70;99.90;;;;;;5039211;28;20435;-82
2023/07/10 06:18:15;;;;;;;9.60;6.53;;;26.80;99.90;;;;;;5037356;28;20451;-81
2023/07/10 06:20:42;;;;;;;11.20;7.30;;;27.00;99.90;;;;;;5039372;28;20854;-82
2023/07/10 06:23:09;;;;;;;7.87;7.17;;;27.10;99.90;;;;;;5041730;28;20482;-81
2023/07/10 06:25:36;;;;;;;8.00;6.63;;;27.30;99.90;;;;;;5043656;28;20478;-81
2023/07/10 06:28:02;;;;;;;7.40;6.63;;;27.50;99.90;;;;;;5042210;28;20841;-82
2023/07/10 06:30:31;;;;;;;10.73;7.50;;;27.50;99.90;;;;;;5042861;28;20455;-80
2023/07/10 06:32:57;;;;;;;9.60;6.87;;;27.40;99.90;;;;;;5042120;28;20963;-81
2023/07/10 06:35:24;;;;;;;7.53;6.80;;;27.30;99.90;;;;;;5042121;28;20442;-83
2023/07/10 06:37:51;;;;;;;6.93;6.23;;;27.30;99.90;;;;;;5044469;28;20530;-81
2023/07/10 06:40:18;;;;;;;8.63;6.83;;;27.50;99.90;;;;;;5044386;28;20454;-84
2023/07/10 06:42:45;;;;;;;8.07;6.60;;;27.30;99.90;;;;;;5043509;28;20461;-81
2023/07/10 06:45:13;;;;;;;10.20;7.23;;;27.40;99.90;;;;;;5038016;28;20974;-79
2023/07/10 06:47:43;;;;;;;7.30;6.53;;;27.60;99.90;;;;;;5038824;28;20478;-81
2023/07/10 06:50:12;;;;;;;7.00;6.03;;;27.60;99.90;;;;;;5044034;28;20450;-80
2023/07/10 06:52:39;;;;;;;6.73;6.00;;;27.70;99.90;;;;;;5045242;28;20453;-81
2023/07/10 06:55:07;;;;;;;6.47;5.87;;;27.80;99.90;;;;;;5044052;28;20474;-80
2023/07/10 06:57:34;;;;;;;7.60;7.00;;;27.90;99.90;;;;;;5045827;28;20446;-80
2023/07/10 07:00:02;;;;;;;6.77;6.10;;;28.10;99.90;;;;;;5042743;28;20442;-80
2023/07/10 07:02:29;;;;;;;7.00;5.40;;;28.20;99.90;;;;;;5048171;28;20462;-80
2023/07/10 07:04:57;;;;;;;6.90;6.20;;;28.20;99.90;;;;;;5048930;28;20485;-82
2023/07/10 07:07:23;;;;;;;7.47;6.07;;;28.20;99.90;;;;;;5048671;28;20482;-82
2023/07/10 07:09:50;;;;;;;9.70;5.37;;;28.30;99.90;;;;;;5049812;28;20435;-82
2023/07/10 07:12:17;;;;;;;6.43;5.83;;;28.30;99.90;;;;;;5053668;28;20446;-80
2023/07/10 07:14:43;;;;;;;6.60;5.70;;;28.30;99.90;;;;;;5046938;28;20524;-79
2023/07/10 07:17:10;;;;;;;10.83;5.80;;;28.30;99.90;;;;;;5053165;28;20423;-81
2023/07/10 07:19:37;;;;;;;10.43;5.70;;;28.20;99.90;;;;;;5051201;28;20473;-78
2023/07/10 07:22:05;;;;;;;6.03;5.13;;;28.20;99.90;;;;;;5055142;28;20442;-85
2023/07/10 07:24:32;;;;;;;7.30;5.47;;;28.20;99.90;;;;;;5052345;28;20459;-81
2023/07/10 07:26:59;;;;;;;6.37;5.77;;;28.20;99.90;;;;;;5045883;28;20478;-81
2023/07/10 07:29:26;;;;;;;7.43;5.20;;;28.20;99.90;;;;;;5041350;28;20474;-79
2023/07/10 07:31:53;;;;;;;5.37;4.90;;;28.10;99.90;;;;;;5039705;28;20470;-80
2023/07/10 07:34:20;;;;;;;6.70;5.40;;;27.90;99.90;;;;;;5041485;28;20470;-81
2023/07/10 07:36:49;;;;;;;6.37;5.83;;;27.90;99.90;;;;;;5041535;28;20443;-80
2023/07/10 07:39:17;;;;;;;7.33;5.47;;;28.20;99.90;;;;;;5043893;28;20936;-82
2023/07/10 07:41:44;;;;;;;5.83;5.23;;;28.20;99.90;;;;;;5044267;28;20553;-79
2023/07/10 07:44:11;;;;;;;8.50;4.87;;;28.40;99.90;;;;;;5039453;28;20474;-80
2023/07/10 07:46:37;;;;;;;6.57;5.20;;;28.50;99.90;;;;;;5040112;28;20597;-81
2023/07/10 07:49:04;;;;;;;6.20;5.23;;;28.60;99.90;;;;;;5038136;28;20447;-82
2023/07/10 07:51:31;;;;;;;5.80;5.17;;;28.80;99.90;;;;;;5035516;28;20435;-79
2023/07/10 07:54:06;;;;;;;5.53;5.03;;;28.80;99.90;;;;;;5038188;28;20477;-80
2023/07/10 07:56:34;;;;;;;5.57;5.10;;;28.60;99.90;;;;;;5036788;28;20447;-78
2023/07/10 07:59:01;;;;;;;7.33;5.30;;;28.70;99.90;;;;;;5035813;28;20439;-79
2023/07/10 08:01:28;;;;;;;5.83;5.20;;;28.80;99.90;;;;;;5037431;28;20454;-80
2023/07/10 08:03:55;;;;;;;4.83;4.53;;;29.10;99.90;;;;;;5036444;28;20455;-79
2023/07/10 08:06:22;;;;;;;5.40;5.00;;;29.00;99.90;;;;;;5034880;28;20478;-78
2023/07/10 08:08:48;;;;;;;5.57;5.10;;;29.00;99.90;;;;;;5036111;28;20458;-79
2023/07/10 08:11:17;;;;;;;5.67;5.20;;;29.20;99.90;;;;;;5035766;28;20539;-79
2023/07/10 08:13:45;;;;;;;6.27;5.67;;;29.10;99.90;;;;;;5040733;28;20466;-80
2023/07/10 08:16:12;;;;;;;5.53;5.03;;;29.20;99.90;;;;;;5049075;28;20430;-79
2023/07/10 08:18:40;;;;;;;6.30;5.20;;;29.30;99.90;;;;;;5046022;28;20438;-79
2023/07/10 08:21:10;;;;;;;5.83;5.23;;;29.40;99.90;;;;;;5041400;28;20449;-79
2023/07/10 08:23:36;;;;;;;5.83;5.30;;;29.40;99.90;;;;;;5034859;28;20477;-79
2023/07/10 08:26:04;;;;;;;5.97;5.33;;;29.20;99.90;;;;;;5034408;28;20443;-79
2023/07/10 08:28:31;;;;;;;12.17;6.40;;;29.10;99.90;;;;;;5034096;28;20450;-81
2023/07/10 08:30:59;;;;;;;5.93;5.33;;;29.20;99.90;;;;;;5033719;28;20443;-79
2023/07/10 08:33:26;;;;;;;5.57;5.07;;;29.10;99.90;;;;;;5033637;28;20545;-79
2023/07/10 08:35:54;;;;;;;8.10;5.07;;;29.10;99.90;;;;;;5035478;28;20470;-80
2023/07/10 08:38:21;;;;;;;5.87;5.27;;;29.40;99.90;;;;;;5035063;28;20463;-80
2023/07/10 08:40:50;;;;;;;6.07;5.30;;;29.60;99.90;;;;;;5034047;28;20461;-80
2023/07/10 08:43:25;;;;;;;8.90;6.10;;;29.70;99.90;;;;;;5034738;28;20555;-80
2023/07/10 08:45:52;;;;;;;6.27;5.23;;;29.80;99.90;;;;;;5032839;28;20450;-79
2023/07/10 08:48:30;;;;;;;8.60;5.93;;;29.80;99.90;;;;;;5031695;28;20479;-77
2023/07/10 08:51:02;;;;;;;6.90;5.73;;;29.60;99.90;;;;;;5032040;28;20454;-78
2023/07/10 08:53:32;;;;;;;7.40;5.40;;;29.70;99.90;;;;;;5033873;28;20478;-78
2023/07/10 08:56:04;;;;;;;6.97;6.37;;;29.50;99.90;;;;;;5032668;28;20433;-78
2023/07/10 08:58:34;;;;;;;7.13;5.70;;;29.70;99.90;;;;;;5033078;28;20443;-79
2023/07/10 09:01:03;;;;;;;6.93;5.83;;;29.90;99.90;;;;;;5032551;28;21270;-79
2023/07/10 09:03:40;;;;;;;5.90;5.33;;;29.40;99.90;;;;;;5031480;28;20972;-78
2023/07/10 09:06:11;;;;;;;6.03;5.50;;;29.80;99.90;;;;;;5031379;28;20435;-78
2023/07/10 09:08:39;;;;;;;6.37;5.33;;;30.20;99.90;;;;;;5034668;28;20435;-80
2023/07/10 09:11:07;;;;;;;5.70;5.20;;;30.00;99.90;;;;;;5041506;28;20435;-79
2023/07/10 09:13:39;;;;;;;5.93;5.43;;;29.70;99.90;;;;;;5044141;28;20559;-79
2023/07/10 09:16:13;;;;;;;6.03;5.40;;;29.80;99.90;;;;;;5041516;28;20423;-78
2023/07/10 09:18:47;;;;;;;7.60;5.93;;;30.30;99.90;;;;;;5039104;28;20945;-79
2023/07/10 09:21:17;;;;;;;6.50;6.00;;;30.60;99.90;;;;;;5037830;28;20460;-80
2023/07/10 09:23:45;;;;;;;7.30;6.20;;;30.60;99.90;;;;;;5034360;28;20459;-78
2023/07/10 09:26:13;;;;;;;7.30;6.23;;;30.20;99.90;;;;;;5032248;28;20529;-78
2023/07/10 09:28:41;;;;;;;7.57;6.53;;;30.30;99.90;;;;;;5032719;28;20449;-77
2023/07/10 09:31:20;;;;;;;5.77;5.27;;;30.70;99.90;;;;;;5030999;28;20459;-78
2023/07/10 09:33:54;;;;;;;6.50;5.90;;;30.90;99.90;;;;;;5031451;28;20468;-77
2023/07/10 09:36:22;;;;;;;9.90;6.00;;;30.50;99.90;;;;;;5031546;28;20432;-78
2023/07/10 09:38:51;;;;;;;7.07;6.47;;;30.60;99.90;;;;;;5032016;28;20884;-78
2023/07/10 09:41:21;;;;;;;6.37;5.87;;;30.10;99.90;;;;;;5031128;28;20485;-78
2023/07/10 09:43:56;;;;;;;6.60;6.03;;;30.50;99.90;;;;;;5030758;28;20470;-78
2023/07/10 09:46:24;;;;;;;6.47;5.53;;;30.60;99.90;;;;;;5031972;28;20467;-79
2023/07/10 09:48:56;;;;;;;6.27;5.77;;;31.00;99.90;;;;;;5031623;28;20538;-78
2023/07/10 09:51:24;;;;;;;6.20;5.70;;;31.40;99.90;;;;;;5030931;28;20927;-79
2023/07/10 09:53:52;;;;;;;6.83;6.20;;;31.40;99.90;;;;;;5030733;28;20462;-78
2023/07/10 09:56:27;;;;;;;6.50;6.00;;;30.60;99.90;;;;;;5031338;28;20438;-78
2023/07/10 09:58:55;;;;;;;7.03;6.47;;;30.20;99.90;;;;;;5031910;28;20450;-79
2023/07/10 10:01:25;;;;;;;6.83;6.23;;;30.40;99.90;;;;;;5031426;28;20447;-78
2023/07/10 10:03:55;;;;;;;6.13;5.73;;;30.70;99.90;;;;;;5031570;28;20454;-78
2023/07/10 10:06:24;;;;;;;6.73;6.23;;;30.70;99.90;;;;;;5032159;28;20439;-79
2023/07/10 10:08:52;;;;;;;7.00;5.50;;;30.70;99.90;;;;;;5041700;28;20450;-76
2023/07/10 10:11:29;;;;;;;6.37;5.87;;;31.00;99.90;;;;;;5048798;28;20430;-77
2023/07/10 10:14:00;;;;;;;6.40;5.97;;;31.30;99.90;;;;;;5040205;28;20508;-78
2023/07/10 10:16:33;;;;;;;7.40;5.90;;;31.00;99.90;;;;;;5031650;28;20459;-78
2023/07/10 10:19:04;;;;;;;7.17;6.57;;;30.50;99.90;;;;;;5033604;28;20443;-77
2023/07/10 10:21:34;;;;;;;9.03;6.77;;;30.00;99.90;;;;;;5033041;28;20431;-78
2023/07/10 10:24:05;;;;;;;7.27;6.57;;;30.10;99.90;;;;;;5032046;28;20462;-78
2023/07/10 10:26:57;;;;;;;6.33;5.83;;;30.70;99.90;;;;;;5031303;28;20482;-78
2023/07/10 10:29:43;;;;;;;6.33;5.80;;;30.80;99.90;;;;;;5031631;28;20462;-80
2023/07/10 10:32:23;;;;;;;6.73;6.20;;;31.10;99.90;;;;;;5031545;28;20426;-78
2023/07/10 10:34:57;;;;;;;7.03;6.53;;;31.10;99.90;;;;;;5031366;28;20517;-79
2023/07/10 10:37:36;;;;;;;6.47;5.93;;;31.20;99.90;;;;;;5031414;28;20913;-79
2023/07/10 10:40:10;;;;;;;7.20;6.53;;;30.60;99.90;;;;;;5031578;28;20480;-79
2023/07/10 10:42:44;;;;;;;7.10;6.43;;;31.10;99.90;;;;;;5031127;28;20438;-78
2023/07/10 10:45:15;;;;;;;6.80;6.20;;;31.30;99.90;;;;;;5031675;28;20461;-78
2023/07/10 10:47:53;;;;;;;7.10;6.40;;;31.90;99.90;;;;;;5031121;28;20595;-78
2023/07/10 10:50:38;;;;;;;6.37;5.87;;;31.80;99.90;;;;;;5031645;28;20934;-78
2023/07/10 10:53:22;;;;;;;6.53;5.90;;;31.50;99.90;;;;;;5030900;28;22093;-78
2023/07/10 10:55:56;;;;;;;7.07;6.47;;;32.10;99.90;;;;;;5031722;28;20419;-77
2023/07/10 10:58:37;;;;;;;7.23;6.60;;;32.50;99.90;;;;;;5032725;28;20461;-79
2023/07/10 11:01:20;;;;;;;6.73;6.10;;;31.70;99.90;;;;;;5032846;28;20454;-79
2023/07/10 11:03:51;;;;;;;7.47;6.43;;;30.90;99.90;;;;;;5032382;28;20470;-78
2023/07/10 11:06:42;;;;;;;5.70;5.20;;;31.60;99.90;;;;;;5035546;28;20534;-80
2023/07/10 11:09:13;;;;;;;6.47;5.97;;;32.30;99.90;;;;;;5037816;28;20816;-79
2023/07/10 11:11:41;;;;;;;6.93;6.43;;;32.50;99.90;;;;;;5038754;28;20454;-79
2023/07/10 11:14:10;;;;;;;9.17;7.17;;;33.10;99.90;;;;;;5039689;28;20501;-79
2023/07/10 11:16:37;;;;;;;7.10;6.40;;;32.80;99.90;;;;;;5037836;28;20443;-79
2023/07/10 11:19:05;;;;;;;7.23;6.57;;;32.70;99.90;;;;;;5037729;28;20445;-80
2023/07/10 11:21:33;;;;;;;7.03;6.33;;;32.90;99.90;;;;;;5036291;28;20442;-78
2023/07/10 11:24:14;;;;;;;7.50;6.07;;;32.10;99.90;;;;;;5034764;28;20466;-80
2023/07/10 11:26:41;;;;;;;7.20;6.50;;;32.10;99.90;;;;;;5035631;28;20426;-79
2023/07/10 11:29:28;;;;;;;7.83;5.93;;;32.50;99.90;;;;;;5035017;28;20474;-77
2023/07/10 11:31:57;;;;;;;6.50;5.80;;;32.90;99.90;;;;;;5034673;28;20537;-78
2023/07/10 11:34:47;;;;;;;6.20;5.70;;;33.20;99.90;;;;;;5034558;28;20585;-78
2023/07/10 11:37:39;;;;;;;6.40;5.90;;;32.60;99.90;;;;;;5034429;28;20859;-78
2023/07/10 11:40:45;;;;;;;6.13;5.63;;;32.60;99.90;;;;;;5035169;28;20450;-77
2023/07/10 11:43:57;;;;;;;8.53;5.37;;;32.20;99.90;;;;;;5034948;28;20843;-79
2023/07/10 11:46:27;;;;;;;6.77;6.17;;;32.40;99.90;;;;;;5025553;28;20446;-78
2023/07/10 11:49:08;;;;;;;6.37;5.87;;;33.00;99.90;;;;;;5036024;28;20462;-79
2023/07/10 11:51:35;;;;;;;6.13;5.60;;;34.00;99.90;;;;;;5035714;28;20435;-78
2023/07/10 11:54:45;;;;;;;5.90;5.30;;;33.70;99.90;;;;;;5034656;28;20462;-78
2023/07/10 11:57:15;;;;;;;6.33;5.73;;;33.00;99.90;;;;;;5035857;28;20470;-79
2023/07/10 11:59:48;;;;;;;6.00;5.50;;;34.00;99.10;;;;;;5034900;28;20546;-78
2023/07/10 12:02:26;;;;;;;6.20;5.60;;;34.20;97.60;;;;;;5035018;28;20516;-80
2023/07/10 12:04:53;;;;;;;7.33;5.80;;;34.10;96.70;;;;;;5034613;28;20490;-78
2023/07/10 12:07:20;;;;;;;5.63;5.13;;;34.10;95.40;;;;;;5034606;28;20451;-78
2023/07/10 12:09:51;;;;;;;5.20;4.80;;;34.50;94.40;;;;;;5035011;28;20442;-78
2023/07/10 12:12:18;;;;;;;5.57;5.07;;;34.40;93.50;;;;;;5037781;28;20497;-80
2023/07/10 12:14:44;;;;;;;7.00;5.10;;;33.90;93.30;;;;;;5040580;28;20474;-78
2023/07/10 12:17:16;;;;;;;4.90;4.60;;;34.30;92.40;;;;;;5038292;28;21130;-80
2023/07/10 12:19:44;;;;;;;5.30;4.80;;;34.00;92.10;;;;;;5035569;28;20936;-78
2023/07/10 12:22:19;;;;;;;7.57;5.30;;;34.30;91.70;;;;;;5050605;28;20468;-79
2023/07/10 12:24:54;;;;;;;5.53;5.13;;;34.30;91.20;;;;;;5054846;28;20457;-78
2023/07/10 12:27:21;;;;;;;5.27;4.50;;;34.50;89.90;;;;;;5055031;28;20530;-79
2023/07/10 12:29:49;;;;;;;5.77;4.90;;;34.20;90.00;;;;;;5055649;28;20434;-80
2023/07/10 12:32:16;;;;;;;5.37;4.87;;;34.50;89.60;;;;;;5054673;28;20496;-80
2023/07/10 12:34:43;;;;;;;4.93;4.47;;;34.40;88.10;;;;;;5054445;28;20465;-78
2023/07/10 12:37:12;;;;;;;5.70;5.20;;;33.80;88.20;;;;;;5066362;28;20437;-77
2023/07/10 12:39:38;;;;;;;4.40;4.10;;;34.20;87.10;;;;;;5074320;28;20457;-78
2023/07/10 12:42:25;;;;;;;5.13;4.73;;;34.30;86.00;;;;;;5071808;28;20437;-78
2023/07/10 12:44:52;;;;;;;6.10;5.60;;;33.80;86.40;;;;;;5067365;28;20461;-78
2023/07/10 12:47:18;;;;;;;6.00;5.50;;;34.40;84.90;;;;;;5067687;28;20465;-77
2023/07/10 12:49:50;;;;;;;5.77;5.10;;;34.00;83.40;;;;;;5061403;28;20450;-81
2023/07/10 12:52:17;;;;;;;6.00;4.60;;;33.90;83.70;;;;;;5057753;28;20446;-77
2023/07/10 12:54:50;;;;;;;6.57;5.13;;;34.70;82.60;;;;;;5054172;28;20864;-79
2023/07/10 12:57:20;;;;;;;5.03;4.63;;;34.30;81.30;;;;;;5056080;28;20445;-78
2023/07/10 12:59:48;;;;;;;5.30;4.90;;;34.20;80.90;;;;;;5054788;28;20854;-79